Etusivu
METAR-TAF:

METAR-TAF

Lentoasemat :

Pori, Suomi

Porin lentoasema

Leveyspiiri: 61-28N, Pituuspiiri: 021-48E, korkeus merenpinnasta: 13 m

Tämänhetkinen sää

Tämä raportti tehtiin 35 minuuttia sitten, kello 23.20 UTC
Tuuli 5 kn idästä
Lämpötila -8°C
Kosteus 85%
Ilmanpaine 998 hPa
Näkyvyys: 5000 m
heikkoa lumisadetta

METAR: EFPO 172320Z AUTO 08005KT 5000 -SN FEW025/// BKN029/// M08/M10 Q0998

Aika: 01:55 (23:55 UTC)

Sääennuste

Tämä raportti tehtiin 3 tuntia ja 20 minuuttia sitten, kello 20.35 UTC
Ennuste voimassa 17. päivästä klo 21 UTC - 17. päivään klo 23 UTC
Tuuli 8 kn idästä
Näkyvyys 10 km tai enemmän
Hajonneita pilviä 3000 ft:n korkeudessa
heikkoa lumisadetta
Ajoittain
17. päivästä klo 21 UTC - 17. päivään klo 23 UTC
Näkyvyys: 5000 m

TAF: EFPO 172035Z 1721/1723 09008KT 9999 -SN BKN030 TEMPO 1721/1723 5000

Säähavainnot ja -ennusteet yli 4000 lentoasemalta (METAR- ja TAF-raportit).

Käytössä olevat sääasemat on merkitty karttaan keltaisilla ja punaisilla pisteillä.

Aseta hiiri pisteen päälle nähdäksesi sääaseman nimen.

Klikkaa sitten nähdäksesi säähavainnot ja -ennusteet.

Kartan vaihtaminen: klikkaa mustalla rastilla varustettuja vihreitä pisteitä, niin voit zoomata sisään; viivalla varustettua vihreää pistettä, niin voit zoomata ulos tai vihreitä nuolia, niin pääset viereisille kartoille.


METAR-TAF: